Time;durP1;ratioP1;P1;durP2;ratioP2;P2;SDS_P1;SDS_P2;PMS_P1;PMS_P2;Temp;Humidity;BMP_temperature;BMP_pressure;BME280_temperature;BME280_humidity;BME280_pressure;Samples;Min_cycle;Max_cycle;Signal;HPM_P1;HPM_P2
2023/07/25 00:03:37;;;;;;;6.20;3.25;;;;;;;17.49;100.00;99637.50;8373573;28;20124;-62
2023/07/25 00:07:38;;;;;;;11.25;3.50;;;;;;;17.55;100.00;99636.69;8377636;28;20048;-62
2023/07/25 00:11:38;;;;;;;7.95;3.22;;;;;;;17.52;100.00;99639.84;8380971;28;20045;-62
2023/07/25 00:15:39;;;;;;;12.07;3.70;;;;;;;17.42;100.00;99642.91;8377877;28;20043;-62
2023/07/25 00:19:39;;;;;;;7.22;3.25;;;;;;;17.47;100.00;99647.78;8376062;28;20033;-62
2023/07/25 00:23:40;;;;;;;4.40;2.90;;;;;;;17.47;100.00;99639.59;8376386;28;20033;-62
2023/07/25 00:27:40;;;;;;;5.22;2.70;;;;;;;17.47;100.00;99645.91;8377722;28;20472;-62
2023/07/25 00:31:41;;;;;;;5.45;2.10;;;;;;;17.47;100.00;99647.78;8374005;28;20395;-62
2023/07/25 00:35:41;;;;;;;8.40;2.63;;;;;;;17.49;100.00;99641.09;8376844;28;20040;-62
2023/07/25 00:39:42;;;;;;;7.43;3.28;;;;;;;17.43;100.00;99636.47;8376378;28;20151;-62
2023/07/25 00:43:42;;;;;;;4.82;2.35;;;;;;;17.34;100.00;99634.06;8377489;28;20040;-62
2023/07/25 00:47:43;;;;;;;9.95;3.22;;;;;;;17.22;100.00;99630.25;8379484;28;20539;-62
2023/07/25 00:51:43;;;;;;;9.98;3.35;;;;;;;17.14;100.00;99633.16;8375171;28;20036;-62
2023/07/25 00:55:44;;;;;;;5.68;2.55;;;;;;;17.08;100.00;99625.78;8376196;28;20469;-62
2023/07/25 00:59:46;;;;;;;8.85;2.92;;;;;;;16.97;100.00;99627.22;8374966;28;20123;-61
2023/07/25 01:03:46;;;;;;;6.50;2.55;;;;;;;16.85;100.00;99607.00;8375021;28;20438;-61
2023/07/25 01:07:48;;;;;;;5.95;2.67;;;;;;;16.75;100.00;99608.41;8374799;28;20049;-61
2023/07/25 01:11:48;;;;;;;11.13;2.47;;;;;;;16.70;100.00;99602.69;8377381;28;20123;-62
2023/07/25 01:15:50;;;;;;;7.35;3.13;;;;;;;16.63;100.00;99593.66;8377597;28;20566;-62
2023/07/25 01:19:51;;;;;;;7.80;2.53;;;;;;;16.56;100.00;99584.59;8376916;28;20041;-62
2023/07/25 01:23:52;;;;;;;7.97;3.10;;;;;;;16.49;100.00;99589.13;8373700;28;20033;-61
2023/07/25 01:27:52;;;;;;;8.35;3.10;;;;;;;16.39;100.00;99572.25;8374449;28;20587;-62
2023/07/25 01:31:53;;;;;;;11.95;2.63;;;;;;;16.40;100.00;99584.84;8373442;28;20057;-62
2023/07/25 01:35:54;;;;;;;10.48;2.58;;;;;;;16.40;100.00;99584.84;8375236;28;20173;-61
2023/07/25 01:39:54;;;;;;;10.98;2.83;;;;;;;16.41;100.00;99586.56;8374578;28;20099;-61
2023/07/25 01:43:55;;;;;;;6.78;2.17;;;;;;;16.39;100.00;99585.91;8374523;28;20037;-61
2023/07/25 01:47:56;;;;;;;10.27;3.13;;;;;;;16.37;100.00;99579.78;8373224;28;20068;-62
2023/07/25 01:51:57;;;;;;;11.05;3.38;;;;;;;16.30;100.00;99576.19;8374332;28;20052;-61
2023/07/25 01:55:57;;;;;;;12.52;3.28;;;;;;;16.27;100.00;99568.41;8373812;28;20133;-61
2023/07/25 01:59:58;;;;;;;17.45;3.03;;;;;;;16.22;100.00;99560.00;8376448;28;20045;-63
2023/07/25 02:03:58;;;;;;;6.38;3.05;;;;;;;16.15;100.00;99559.94;8371166;28;20120;-61
2023/07/25 02:07:59;;;;;;;10.85;3.60;;;;;;;16.17;100.00;99559.75;8372494;28;20068;-61
2023/07/25 02:12:00;;;;;;;7.53;2.83;;;;;;;15.98;100.00;99564.00;8374758;28;20052;-61
2023/07/25 02:16:01;;;;;;;7.65;3.40;;;;;;;15.93;100.00;99576.56;8374131;28;20499;-62
2023/07/25 02:20:02;;;;;;;10.98;2.85;;;;;;;15.89;100.00;99575.28;8373191;28;20063;-61
2023/07/25 02:24:02;;;;;;;9.80;3.00;;;;;;;15.91;100.00;99573.16;8372921;28;20123;-61
2023/07/25 02:28:03;;;;;;;14.60;3.47;;;;;;;16.05;100.00;99564.06;8371782;28;20063;-61
2023/07/25 02:32:04;;;;;;;9.48;4.07;;;;;;;16.05;100.00;99564.06;8373452;28;20434;-61
2023/07/25 02:36:05;;;;;;;11.55;3.17;;;;;;;16.02;100.00;99559.00;8371655;28;20037;-61
2023/07/25 02:40:07;;;;;;;14.68;4.10;;;;;;;15.91;100.00;99562.25;8375342;28;20079;-61
2023/07/25 02:44:08;;;;;;;11.65;3.17;;;;;;;15.84;100.00;99572.28;8394395;28;20440;-62
2023/07/25 02:48:08;;;;;;;12.68;3.78;;;;;;;15.84;100.00;99572.28;8373165;28;20132;-62
2023/07/25 02:52:09;;;;;;;4.97;3.28;;;;;;;15.84;100.00;99573.13;8373452;28;20052;-62
2023/07/25 02:56:10;;;;;;;8.68;3.78;;;;;;;15.94;100.00;99579.09;8370332;28;20033;-62
2023/07/25 03:00:11;;;;;;;8.45;3.58;;;;;;;16.03;100.00;99582.50;8375065;28;20037;-62
2023/07/25 03:04:11;;;;;;;6.93;3.58;;;;;;;16.10;100.00;99580.69;8371305;28;20540;-62
2023/07/25 03:08:12;;;;;;;14.07;3.55;;;;;;;16.06;100.00;99587.56;8372181;28;20036;-62
2023/07/25 03:12:12;;;;;;;8.65;3.40;;;;;;;16.08;100.00;99574.56;8374119;28;20111;-63
2023/07/25 03:16:13;;;;;;;11.38;3.00;;;;;;;16.18;100.00;99581.38;8373416;28;20044;-63
2023/07/25 03:20:13;;;;;;;6.88;3.25;;;;;;;16.28;100.00;99570.13;8371768;28;20403;-62
2023/07/25 03:24:14;;;;;;;10.85;3.58;;;;;;;16.29;100.00;99572.66;8370982;28;20115;-62
2023/07/25 03:28:14;;;;;;;9.38;2.95;;;;;;;16.37;100.00;99568.88;8371383;28;20048;-62
2023/07/25 03:32:15;;;;;;;7.70;3.08;;;;;;;16.35;100.00;99560.09;8371380;28;20037;-62
2023/07/25 03:36:15;;;;;;;7.15;3.08;;;;;;;16.36;100.00;99561.75;8392891;28;20405;-63
2023/07/25 03:40:16;;;;;;;9.48;3.25;;;;;;;16.33;100.00;99556.69;8370671;28;20040;-63
2023/07/25 03:44:17;;;;;;;10.60;3.58;;;;;;;16.35;100.00;99551.91;8368651;28;20044;-62
2023/07/25 03:48:18;;;;;;;10.57;3.00;;;;;;;16.32;100.00;99546.84;8368637;28;20036;-62
2023/07/25 03:52:18;;;;;;;7.28;3.30;;;;;;;16.34;100.00;99558.38;8361082;28;20035;-61
2023/07/25 03:56:19;;;;;;;11.00;3.15;;;;;;;16.34;100.00;99561.09;8359078;27;20465;-62
2023/07/25 04:00:19;;;;;;;8.77;3.50;;;;;;;16.30;100.00;99554.38;8361983;28;20039;-62
2023/07/25 04:04:21;;;;;;;13.23;3.90;;;;;;;16.27;100.00;99552.91;8360681;28;20105;-63
2023/07/25 04:08:22;;;;;;;8.05;2.95;;;;;;;16.28;100.00;99553.75;8391937;28;20041;-63
2023/07/25 04:12:23;;;;;;;11.02;3.40;;;;;;;16.28;100.00;99553.75;8360272;28;20090;-63
2023/07/25 04:16:23;;;;;;;15.10;3.38;;;;;;;16.26;100.00;99544.91;8360735;28;20426;-63
2023/07/25 04:20:23;;;;;;;9.07;2.88;;;;;;;16.26;100.00;99550.38;8362691;28;20555;-63
2023/07/25 04:24:24;;;;;;;7.85;3.15;;;;;;;16.34;100.00;99542.00;8359626;28;20549;-63
2023/07/25 04:28:25;;;;;;;9.82;3.42;;;;;;;16.33;100.00;99540.34;8359587;28;20043;-62
2023/07/25 04:32:25;;;;;;;9.23;3.05;;;;;;;16.33;100.00;99545.78;8357255;28;20086;-63
2023/07/25 04:36:28;;;;;;;7.78;2.95;;;;;;;16.41;100.00;99541.00;8359133;28;20507;-62
2023/07/25 04:40:29;;;;;;;6.53;3.08;;;;;;;16.50;100.00;99552.66;8360275;28;20041;-63
2023/07/25 04:44:29;;;;;;;17.27;3.92;;;;;;;16.59;100.00;99554.97;8360821;28;20044;-62
2023/07/25 04:48:31;;;;;;;6.72;3.28;;;;;;;16.54;100.00;99564.84;8358604;28;20041;-63
2023/07/25 04:52:31;;;;;;;9.30;3.60;;;;;;;16.66;100.00;99553.16;8358513;28;20028;-63
2023/07/25 04:56:31;;;;;;;7.78;3.03;;;;;;;16.70;100.00;99548.09;8357679;28;20063;-64
2023/07/25 05:00:32;;;;;;;7.90;3.40;;;;;;;16.78;100.00;99539.75;8355384;28;20033;-64
2023/07/25 05:04:33;;;;;;;15.02;3.38;;;;;;;16.84;100.00;99538.94;8351167;28;20590;-65
2023/07/25 05:08:33;;;;;;;7.60;4.80;;;;;;;16.94;100.00;99539.38;8354924;28;20068;-63
2023/07/25 05:12:33;;;;;;;7.20;3.58;;;;;;;16.85;100.00;99532.44;8361691;28;20040;-64
2023/07/25 05:16:34;;;;;;;9.70;4.45;;;;;;;16.80;100.00;99532.22;8353159;28;20522;-63
2023/07/25 05:20:34;;;;;;;11.23;4.10;;;;;;;16.73;100.00;99545.81;8356320;28;20719;-64
2023/07/25 05:24:35;;;;;;;16.88;4.05;;;;;;;16.71;100.00;99550.63;8356117;28;20543;-64
2023/07/25 05:28:36;;;;;;;13.18;4.70;;;;;;;16.66;100.00;99552.31;8358072;28;20040;-61
2023/07/25 05:32:38;;;;;;;10.90;4.63;;;;;;;16.73;100.00;99558.63;8351658;28;23061;-63
2023/07/25 05:36:38;;;;;;;10.75;4.25;;;;;;;16.76;100.00;99572.72;8357382;28;20041;-63
2023/07/25 05:40:39;;;;;;;9.02;4.28;;;;;;;16.80;100.00;99576.72;8357415;28;20036;-63
2023/07/25 05:44:39;;;;;;;11.88;4.72;;;;;;;16.80;100.00;99575.91;8362830;28;20696;-60
2023/07/25 05:48:40;;;;;;;9.20;4.57;;;;;;;16.83;100.00;99583.66;8370420;28;20107;-60
2023/07/25 05:52:40;;;;;;;11.57;5.07;;;;;;;16.91;100.00;99578.03;8372270;28;20060;-61
2023/07/25 05:56:40;;;;;;;16.95;5.38;;;;;;;16.89;100.00;99586.41;8370977;28;20086;-60
2023/07/25 06:00:42;;;;;;;17.35;4.95;;;;;;;16.92;100.00;99590.63;8357766;28;20095;-60
2023/07/25 06:04:45;;;;;;;14.32;4.95;;;;;;;16.95;100.00;99596.53;8355086;28;20033;-60
2023/07/25 06:08:46;;;;;;;15.88;4.85;;;;;;;16.94;100.00;99608.50;8355539;28;20045;-61
2023/07/25 06:12:46;;;;;;;20.38;6.32;;;;;;;16.88;100.00;99608.47;8356012;28;20498;-61
2023/07/25 06:16:47;;;;;;;15.48;6.15;;;;;;;16.91;100.00;99597.13;8342266;28;20092;-61
2023/07/25 06:20:48;;;;;;;20.95;6.40;;;;;;;16.92;100.00;99596.09;8338009;28;20396;-62
2023/07/25 06:24:48;;;;;;;22.25;7.22;;;;;;;16.93;100.00;99595.06;8339087;28;20045;-61
2023/07/25 06:28:49;;;;;;;13.93;6.55;;;;;;;16.98;100.00;99596.13;8334174;28;20045;-61
2023/07/25 06:32:49;;;;;;;24.85;10.15;;;;;;;17.07;100.00;99588.59;8335060;28;20044;-63
2023/07/25 06:36:50;;;;;;;15.73;6.85;;;;;;;17.06;100.00;99600.56;8338097;28;20037;-63
2023/07/25 06:40:50;;;;;;;18.65;6.63;;;;;;;17.11;100.00;99600.81;8337139;28;20553;-63
2023/07/25 06:44:51;;;;;;;10.18;6.00;;;;;;;17.15;100.00;99604.81;8338813;28;20048;-63
2023/07/25 06:48:52;;;;;;;23.35;8.20;;;;;;;17.24;100.00;99614.50;8337046;28;20045;-63
2023/07/25 06:52:52;;;;;;;17.73;5.50;;;;;;;17.29;100.00;99611.97;8338250;28;20037;-63
2023/07/25 06:56:53;;;;;;;38.45;7.07;;;;;;;17.41;100.00;99615.78;8337803;28;20041;-64
2023/07/25 07:00:53;;;;;;;14.95;4.88;;;;;;;17.47;99.55;99612.28;8333978;28;20053;-64
2023/07/25 07:04:55;;;;;;;13.75;5.90;;;;;;;17.67;99.59;99626.84;8336745;28;20049;-64
2023/07/25 07:08:56;;;;;;;9.93;4.95;;;;;;;17.85;98.34;99627.06;8336754;28;20049;-64
2023/07/25 07:12:56;;;;;;;10.70;5.25;;;;;;;17.73;97.60;99612.34;8363770;28;20048;-64
2023/07/25 07:16:57;;;;;;;9.65;4.47;;;;;;;17.83;94.67;99609.16;8358833;28;20051;-64
2023/07/25 07:20:57;;;;;;;42.90;8.60;;;;;;;17.88;92.46;99612.13;8352680;28;20143;-64
2023/07/25 07:24:57;;;;;;;11.27;4.25;;;;;;;17.87;90.59;99619.47;8359753;28;20098;-64
2023/07/25 07:28:58;;;;;;;15.05;3.85;;;;;;;17.92;90.80;99625.19;8360685;28;20047;-64
2023/07/25 07:32:59;;;;;;;11.82;3.85;;;;;;;18.05;91.44;99625.19;8356786;28;20040;-64
2023/07/25 07:36:59;;;;;;;15.35;4.90;;;;;;;18.14;90.17;99620.34;8358857;28;20094;-64
2023/07/25 07:40:59;;;;;;;31.73;6.80;;;;;;;18.45;90.30;99618.66;8358771;28;20195;-64
2023/07/25 07:45:00;;;;;;;13.32;5.75;;;;;;;18.34;89.34;99621.16;8366383;28;20148;-63
2023/07/25 07:49:01;;;;;;;95.70;12.80;;;;;;;18.43;89.72;99626.25;8375906;28;20404;-64
2023/07/25 07:53:03;;;;;;;270.17;27.00;;;;;;;18.61;88.72;99629.19;8374763;28;20036;-64
2023/07/25 07:57:04;;;;;;;14.57;7.38;;;;;;;18.44;86.62;99629.81;8355556;28;20048;-64
2023/07/25 08:01:13;;;;;;;23.00;8.32;;;;;;;18.36;87.06;99636.31;8354079;28;20084;-61
2023/07/25 08:05:13;;;;;;;15.20;6.53;;;;;;;18.32;86.63;99639.69;8354803;28;20534;-61
2023/07/25 08:09:14;;;;;;;14.13;6.72;;;;;;;18.25;85.82;99634.25;8351331;28;20489;-62
2023/07/25 08:13:14;;;;;;;19.05;6.95;;;;;;;18.37;84.35;99632.59;8390280;28;20364;-61
2023/07/25 08:17:16;;;;;;;19.40;7.38;;;;;;;18.44;84.51;99643.50;8371982;28;20041;-61
2023/07/25 08:21:17;;;;;;;13.18;7.30;;;;;;;18.45;86.50;99643.28;8373127;28;20146;-61
2023/07/25 08:25:17;;;;;;;17.17;7.53;;;;;;;18.42;86.62;99635.50;8355745;28;20037;-61
2023/07/25 08:29:17;;;;;;;15.05;8.57;;;;;;;18.42;85.03;99634.69;8355025;28;20407;-61
2023/07/25 08:33:19;;;;;;;19.25;8.73;;;;;;;18.54;85.25;99638.47;8356007;28;20043;-61
2023/07/25 08:37:20;;;;;;;42.70;11.07;;;;;;;18.65;83.52;99635.91;8351692;28;20414;-61
2023/07/25 08:41:26;;;;;;;11.45;5.05;;;;;;;18.90;80.26;99647.00;8355524;28;20059;-61
2023/07/25 08:45:30;;;;;;;12.80;4.43;;;;;;;19.13;77.57;99650.91;8403333;28;20036;-61
2023/07/25 08:49:34;;;;;;;9.15;5.20;;;;;;;19.22;76.83;99651.53;8373158;28;20036;-61
2023/07/25 08:53:47;;;;;;;14.40;4.50;;;;;;;19.34;77.10;99641.59;8375023;28;20037;-62
2023/07/25 08:57:51;;;;;;;34.17;6.03;;;;;;;19.31;76.74;99653.81;8357107;28;20040;-59
2023/07/25 09:01:53;;;;;;;6.97;2.35;;;;;;;19.38;73.87;99654.66;8350075;28;20048;-57
2023/07/25 09:05:54;;;;;;;7.22;1.63;;;;;;;19.30;72.46;99652.16;8377787;28;20048;-57
2023/07/25 09:09:55;;;;;;;10.82;2.38;;;;;;;19.33;74.64;99657.19;8355474;28;20033;-57
2023/07/25 09:13:55;;;;;;;7.20;1.52;;;;;;;19.18;73.27;99659.34;8353504;28;20041;-57
2023/07/25 09:17:55;;;;;;;5.20;1.70;;;;;;;18.98;75.64;99666.81;8355785;28;20135;-58
2023/07/25 09:21:57;;;;;;;7.15;1.67;;;;;;;18.78;77.42;99663.25;8355196;28;20048;-59
2023/07/25 09:26:09;;;;;;;23.20;3.60;;;;;;;18.76;79.37;99670.81;8352719;28;20051;-58
2023/07/25 09:30:14;;;;;;;7.78;1.80;;;;;;;18.80;79.07;99672.09;8353382;28;20040;-59
2023/07/25 09:34:17;;;;;;;5.57;1.60;;;;;;;18.89;77.27;99673.56;8351805;28;20043;-58
2023/07/25 09:38:18;;;;;;;4.13;0.98;;;;;;;19.05;75.33;99680.47;8351664;28;20332;-59
2023/07/25 09:42:22;;;;;;;3.58;1.08;;;;;;;19.15;75.33;99675.34;8352789;28;20521;-59
2023/07/25 09:46:23;;;;;;;;;;;;;;;19.25;75.70;99670.28;8353559;28;20094;-59
2023/07/25 09:50:26;;;;;;;7.07;1.20;;;;;;;19.18;75.38;99673.03;8352528;28;19920;-59
2023/07/25 09:54:26;;;;;;;21.63;2.20;;;;;;;19.12;75.20;99668.41;8351836;28;20041;-58
2023/07/25 09:58:27;;;;;;;7.68;1.35;;;;;;;19.22;73.26;99666.06;8353463;28;20067;-58
2023/07/25 10:02:28;;;;;;;4.97;0.80;;;;;;;20.05;68.13;99673.25;8353335;28;20037;-58
2023/07/25 10:06:29;;;;;;;5.15;0.90;;;;;;;20.60;67.29;99672.41;8352593;28;20118;-58
2023/07/25 10:10:30;;;;;;;7.47;1.08;;;;;;;20.99;63.95;99671.19;8351719;28;20495;-58
2023/07/25 10:14:36;;;;;;;5.88;0.90;;;;;;;21.89;61.72;99679.34;8356825;28;20534;-58
2023/07/25 10:18:37;;;;;;;1.38;0.65;;;;;;;22.60;59.54;99677.38;8353387;28;25216;-58
2023/07/25 10:22:39;;;;;;;2.95;0.80;;;;;;;22.78;59.85;99666.25;8352651;28;20044;-58
2023/07/25 10:27:00;;;;;;;3.30;1.08;;;;;;;23.86;57.53;99670.00;8351832;28;20430;-58
2023/07/25 10:31:00;;;;;;;2.08;0.60;;;;;;;23.24;55.69;99661.81;8357948;28;20045;-59
2023/07/25 10:35:03;;;;;;;6.07;0.60;;;;;;;23.95;54.69;99654.75;8352597;28;20129;-58
2023/07/25 10:39:06;;;;;;;3.33;0.88;;;;;;;24.79;53.01;99662.00;8349107;28;20366;-58
2023/07/25 10:43:06;;;;;;;2.15;0.70;;;;;;;24.27;53.40;99668.84;8351605;28;20049;-58
2023/07/25 10:47:43;;;;;;;10.35;0.80;;;;;;;23.55;54.56;99673.25;8368838;28;20083;-58
2023/07/25 10:51:53;;;;;;;4.55;0.63;;;;;;;23.79;55.31;99657.44;8354202;28;20125;-58
2023/07/25 10:56:10;;;;;;;5.53;0.68;;;;;;;23.82;52.72;99666.03;8349695;28;20037;-58
2023/07/25 11:00:11;;;;;;;7.80;1.30;;;;;;;24.42;53.01;99666.34;8356297;28;20036;-63
2023/07/25 11:04:30;;;;;;;3.10;0.75;;;;;;;25.39;49.13;99657.38;8358201;28;20033;-64
2023/07/25 11:08:30;;;;;;;17.15;5.32;;;;;;;24.39;53.09;99672.38;8374248;28;20127;-63
2023/07/25 11:12:31;;;;;;;12.15;2.85;;;;;;;23.08;53.31;99669.72;8374164;28;20032;-64
2023/07/25 11:16:32;;;;;;;10.80;3.33;;;;;;;23.75;51.08;99653.50;8365605;28;20503;-63
2023/07/25 11:20:32;;;;;;;5.45;2.00;;;;;;;25.18;47.96;99660.09;8356531;28;20045;-63
2023/07/25 11:24:40;;;;;;;6.85;2.08;;;;;;;25.67;48.37;99648.84;8357233;28;20037;-64
2023/07/25 11:28:40;;;;;;;4.07;0.82;;;;;;;24.36;51.83;99657.13;8387858;28;20110;-63
2023/07/25 11:32:50;;;;;;;9.07;1.50;;;;;;;23.98;58.90;99650.66;8384669;28;20037;-64
2023/07/25 11:36:50;;;;;;;2.67;0.80;;;;;;;24.98;50.80;99639.34;8351305;28;20044;-63
2023/07/25 11:40:53;;;;;;;4.93;1.60;;;;;;;25.59;50.77;99649.31;8361808;28;20048;-66
2023/07/25 11:44:56;;;;;;;5.35;1.65;;;;;;;25.98;49.90;99667.50;8365758;28;20071;-60
2023/07/25 11:48:56;;;;;;;6.18;2.05;;;;;;;24.14;52.08;99661.72;8375868;28;20075;-59
2023/07/25 11:52:58;;;;;;;5.97;1.60;;;;;;;23.70;56.82;99654.25;8373867;28;20041;-59
2023/07/25 11:56:58;;;;;;;4.45;1.15;;;;;;;24.11;55.21;99664.97;8372277;28;20036;-58
2023/07/25 12:00:59;;;;;;;7.15;1.52;;;;;;;23.42;56.15;99664.41;8363509;28;20130;-58
2023/07/25 12:04:59;;;;;;;12.73;3.90;;;;;;;22.99;55.78;99668.41;8357116;28;20095;-58
2023/07/25 12:09:00;;;;;;;14.05;6.13;;;;;;;23.46;55.93;99676.63;8355369;28;20041;-59
2023/07/25 12:13:03;;;;;;;2.80;0.90;;;;;;;22.70;56.25;99674.91;8360869;28;20044;-59
2023/07/25 12:17:03;;;;;;;3.95;0.82;;;;;;;21.84;59.22;99693.00;8355246;28;20037;-59
2023/07/25 12:21:04;;;;;;;6.50;0.98;;;;;;;21.23;60.84;99695.03;8358880;28;20052;-59
2023/07/25 12:25:05;;;;;;;4.05;1.00;;;;;;;21.01;62.91;99704.75;8356888;28;20070;-58
2023/07/25 12:29:12;;;;;;;4.72;1.00;;;;;;;20.84;62.42;99707.25;8354501;28;20522;-58
2023/07/25 12:33:12;;;;;;;4.88;0.90;;;;;;;20.70;63.95;99710.31;8378016;28;20449;-58
2023/07/25 12:37:13;;;;;;;6.60;1.88;;;;;;;20.37;67.98;99726.25;8354700;28;20040;-58
2023/07/25 12:41:13;;;;;;;7.72;1.20;;;;;;;19.98;70.45;99737.47;8355566;28;20191;-58
2023/07/25 12:45:14;;;;;;;22.05;2.13;;;;;;;19.65;71.36;99739.53;8366560;28;20032;-58
2023/07/25 12:49:14;;;;;;;5.43;1.38;;;;;;;19.39;73.50;99738.56;8371052;28;20405;-58
2023/07/25 12:53:15;;;;;;;6.43;1.25;;;;;;;19.26;73.42;99743.22;8370044;28;20048;-58
2023/07/25 12:57:15;;;;;;;6.57;1.20;;;;;;;19.14;74.35;99739.47;8368962;28;20517;-57
2023/07/25 13:01:16;;;;;;;3.03;1.00;;;;;;;19.10;74.05;99736.31;8365332;28;20509;-59
2023/07/25 13:05:16;;;;;;;5.43;1.30;;;;;;;19.21;74.22;99741.13;8352867;28;20487;-60
2023/07/25 13:09:17;;;;;;;2.92;1.00;;;;;;;19.12;73.21;99747.88;8353016;28;20076;-58
2023/07/25 13:13:17;;;;;;;4.60;1.20;;;;;;;19.05;73.55;99747.06;8356515;28;20052;-60
2023/07/25 13:17:18;;;;;;;7.10;1.55;;;;;;;19.20;73.24;99760.53;8352155;28;20090;-59
2023/07/25 13:21:18;;;;;;;5.07;1.27;;;;;;;19.37;73.32;99757.13;8352339;28;20415;-60
2023/07/25 13:25:19;;;;;;;3.33;1.45;;;;;;;19.46;72.38;99761.31;8354414;28;20064;-59
2023/07/25 13:29:19;;;;;;;4.63;0.98;;;;;;;19.51;72.13;99763.41;8352868;28;20041;-59
2023/07/25 13:33:20;;;;;;;5.85;1.00;;;;;;;19.58;68.75;99755.19;8352816;28;20039;-61
2023/07/25 13:37:20;;;;;;;6.43;1.02;;;;;;;19.91;67.91;99744.91;8351179;28;20037;-60
2023/07/25 13:41:21;;;;;;;2.42;0.90;;;;;;;20.17;66.57;99747.50;8351707;28;20034;-60
2023/07/25 13:45:21;;;;;;;4.30;1.35;;;;;;;20.58;64.14;99745.09;8363967;28;20530;-60
2023/07/25 13:49:22;;;;;;;8.27;1.13;;;;;;;21.23;62.73;99739.03;8367020;28;20099;-60
2023/07/25 13:53:22;;;;;;;2.38;0.88;;;;;;;21.48;62.07;99745.28;8366906;28;20037;-61
2023/07/25 13:57:23;;;;;;;3.00;0.77;;;;;;;21.43;58.45;99742.38;8371015;28;20120;-61
2023/07/25 14:01:24;;;;;;;2.15;0.80;;;;;;;21.49;58.23;99743.34;8357016;28;20036;-60
2023/07/25 14:05:24;;;;;;;2.55;0.60;;;;;;;21.43;58.78;99745.13;8353125;28;20415;-60
2023/07/25 14:09:25;;;;;;;7.25;1.10;;;;;;;21.65;59.55;99754.59;8352821;28;20034;-61
2023/07/25 14:13:25;;;;;;;6.10;0.80;;;;;;;21.46;59.71;99755.66;8358282;28;20488;-61
2023/07/25 14:17:26;;;;;;;5.35;1.08;;;;;;;21.69;60.79;99753.06;8349876;28;20029;-59
2023/07/25 14:21:28;;;;;;;9.80;1.88;;;;;;;21.64;60.79;99758.41;8351930;28;20075;-58
2023/07/25 14:25:28;;;;;;;5.32;1.85;;;;;;;21.24;61.79;99752.53;8351096;28;20042;-61
2023/07/25 14:29:29;;;;;;;3.85;1.10;;;;;;;21.15;63.59;99755.81;8354996;28;20041;-60
2023/07/25 14:33:29;;;;;;;5.45;1.27;;;;;;;21.04;63.87;99762.03;8349447;28;20060;-61
2023/07/25 14:37:29;;;;;;;4.03;1.00;;;;;;;21.12;63.91;99775.50;8350773;28;20036;-58
2023/07/25 14:41:30;;;;;;;4.38;0.98;;;;;;;21.20;61.94;99767.78;8352231;28;20037;-61
2023/07/25 14:45:30;;;;;;;2.42;0.90;;;;;;;21.34;62.31;99774.84;8349901;28;20048;-61
2023/07/25 14:49:31;;;;;;;2.63;1.10;;;;;;;21.50;61.97;99778.88;8352279;28;20037;-62
2023/07/25 14:53:32;;;;;;;3.72;0.95;;;;;;;21.29;61.41;99782.09;8352283;28;20064;-61
2023/07/25 14:57:32;;;;;;;4.07;0.90;;;;;;;21.12;62.00;99790.09;8352000;28;20120;-61
2023/07/25 15:01:33;;;;;;;2.75;0.60;;;;;;;20.83;61.55;99796.22;8352057;28;20040;-61
2023/07/25 15:05:34;;;;;;;3.63;1.10;;;;;;;20.70;62.44;99803.72;8350363;28;20040;-61
2023/07/25 15:09:34;;;;;;;4.63;0.93;;;;;;;20.44;64.44;99799.28;8350490;28;20037;-62
2023/07/25 15:13:35;;;;;;;4.30;1.10;;;;;;;20.25;68.72;99810.41;8352531;28;20256;-61
2023/07/25 15:17:35;;;;;;;6.13;1.30;;;;;;;20.30;68.86;99818.78;8351931;28;20430;-61
2023/07/25 15:21:36;;;;;;;6.88;1.10;;;;;;;20.29;69.62;99817.97;8345296;28;20033;-61
2023/07/25 15:25:36;;;;;;;4.20;1.60;;;;;;;20.27;69.98;99820.09;8349365;28;20067;-62
2023/07/25 15:29:37;;;;;;;3.20;1.00;;;;;;;20.31;69.50;99815.00;8334567;28;20362;-61
2023/07/25 15:33:37;;;;;;;5.43;1.10;;;;;;;20.26;69.18;99820.31;8346548;28;20406;-61
2023/07/25 15:37:38;;;;;;;2.88;0.98;;;;;;;19.87;67.62;99824.06;8344678;28;20079;-61
2023/07/25 15:41:38;;;;;;;5.15;1.20;;;;;;;19.62;68.08;99833.19;8352743;28;20055;-61
2023/07/25 15:45:39;;;;;;;3.55;1.42;;;;;;;19.33;68.77;99831.78;8358212;28;20037;-61
2023/07/25 15:49:40;;;;;;;3.00;1.08;;;;;;;19.23;71.50;99834.09;8355002;28;20036;-61
2023/07/25 15:53:41;;;;;;;6.47;1.33;;;;;;;19.18;72.19;99829.25;8354739;28;20043;-61
2023/07/25 15:57:41;;;;;;;3.25;1.10;;;;;;;19.17;73.97;99838.53;8352967;28;20064;-62
2023/07/25 16:01:42;;;;;;;3.35;1.23;;;;;;;19.19;75.20;99830.09;8353370;28;20130;-62
2023/07/25 16:05:42;;;;;;;2.30;1.17;;;;;;;19.19;75.98;99841.88;8352267;28;20091;-62
2023/07/25 16:09:42;;;;;;;4.18;1.40;;;;;;;19.13;75.71;99831.78;8353098;28;20090;-62
2023/07/25 16:13:43;;;;;;;5.95;1.27;;;;;;;19.22;76.60;99830.50;8361623;28;20047;-62
2023/07/25 16:17:44;;;;;;;2.42;1.23;;;;;;;19.28;76.57;99826.94;8355604;28;20040;-62
2023/07/25 16:21:44;;;;;;;3.00;1.10;;;;;;;19.43;75.68;99821.25;8355181;28;20102;-62
2023/07/25 16:25:45;;;;;;;6.38;1.23;;;;;;;19.56;75.19;99831.31;8356039;28;20044;-64
2023/07/25 16:29:45;;;;;;;3.83;1.20;;;;;;;19.73;74.89;99832.56;8354889;28;20087;-62
2023/07/25 16:33:46;;;;;;;2.67;1.17;;;;;;;19.96;72.90;99832.88;8351156;28;20580;-62
2023/07/25 16:37:46;;;;;;;6.22;1.75;;;;;;;20.10;73.69;99826.28;8348639;28;20045;-62
2023/07/25 16:41:47;;;;;;;4.35;1.50;;;;;;;20.03;73.00;99839.19;8357728;28;20080;-62
2023/07/25 16:45:47;;;;;;;4.40;1.40;;;;;;;20.11;71.47;99841.69;8364421;28;20037;-62
2023/07/25 16:49:48;;;;;;;4.85;1.50;;;;;;;20.15;72.00;99834.72;8368794;28;20523;-63
2023/07/25 16:53:48;;;;;;;2.88;1.10;;;;;;;20.28;71.58;99837.41;8370707;28;20044;-62
2023/07/25 16:57:49;;;;;;;6.97;1.70;;;;;;;20.21;70.47;99836.56;8401234;28;20048;-64
2023/07/25 17:01:49;;;;;;;4.95;1.55;;;;;;;20.42;70.99;99853.59;8361043;28;20069;-62
2023/07/25 17:05:50;;;;;;;1.33;1.02;;;;;;;20.31;70.52;99845.22;8353670;28;20085;-62
2023/07/25 17:09:50;;;;;;;4.43;1.20;;;;;;;20.14;71.39;99846.75;8353983;28;20068;-62
2023/07/25 17:13:51;;;;;;;5.30;1.75;;;;;;;20.02;72.58;99845.72;8358857;28;20037;-62
2023/07/25 17:17:51;;;;;;;3.45;1.45;;;;;;;20.05;73.38;99856.25;8355572;28;20038;-62
2023/07/25 17:21:52;;;;;;;3.75;1.50;;;;;;;20.12;74.78;99854.31;8354286;28;20037;-62
2023/07/25 17:25:52;;;;;;;4.93;1.58;;;;;;;20.18;74.60;99865.31;8353834;28;20123;-62
2023/07/25 17:29:52;;;;;;;7.85;1.50;;;;;;;20.24;76.00;99867.19;8350415;28;20132;-62
2023/07/25 17:33:53;;;;;;;10.05;1.75;;;;;;;20.32;74.63;99861.47;8351950;28;20128;-62
2023/07/25 17:37:53;;;;;;;4.57;2.00;;;;;;;20.24;75.28;99869.09;8354182;28;20037;-62
2023/07/25 17:41:54;;;;;;;9.45;2.05;;;;;;;20.19;75.67;99866.16;8358184;28;20071;-62
2023/07/25 17:45:54;;;;;;;5.35;1.40;;;;;;;20.15;76.80;99864.91;8362941;28;20357;-62
2023/07/25 17:49:55;;;;;;;4.10;1.70;;;;;;;20.04;77.16;99863.69;8351081;28;20052;-62
2023/07/25 17:53:55;;;;;;;3.53;1.30;;;;;;;20.00;77.25;99867.06;8344028;28;20337;-62
2023/07/25 17:57:56;;;;;;;3.83;1.27;;;;;;;20.09;73.66;99866.59;8362113;28;20051;-62
2023/07/25 18:01:56;;;;;;;4.38;0.93;;;;;;;20.16;71.04;99866.59;8360163;28;20041;-62
2023/07/25 18:05:57;;;;;;;5.07;0.98;;;;;;;20.17;68.79;99871.03;8350751;28;20415;-62
2023/07/25 18:09:57;;;;;;;2.58;0.82;;;;;;;20.22;68.74;99872.06;8351511;28;20162;-62
2023/07/25 18:13:57;;;;;;;3.85;0.70;;;;;;;20.26;68.11;99870.56;8350178;28;20068;-62
2023/07/25 18:17:59;;;;;;;4.28;1.00;;;;;;;20.23;68.00;99881.13;8335204;28;20040;-62
2023/07/25 18:21:59;;;;;;;4.95;0.60;;;;;;;20.12;67.41;99876.28;8333831;28;20045;-62
2023/07/25 18:26:01;;;;;;;1.63;0.65;;;;;;;19.98;66.10;99881.00;8335089;28;20041;-62
2023/07/25 18:30:02;;;;;;;3.80;0.90;;;;;;;19.94;66.68;99889.88;8334096;28;20124;-62
2023/07/25 18:34:03;;;;;;;5.00;0.73;;;;;;;19.92;67.10;99892.00;8350419;28;20037;-62
2023/07/25 18:38:03;;;;;;;3.97;0.60;;;;;;;19.85;65.63;99893.94;8358444;28;20040;-61
2023/07/25 18:42:05;;;;;;;3.17;0.60;;;;;;;19.75;66.31;99907.22;8359543;28;20044;-61
2023/07/25 18:46:05;;;;;;;2.15;0.70;;;;;;;19.66;67.50;99908.50;8358658;28;20082;-62